• Join FlightAware (Why Join?)
  • Login
  • US Flag 
10:02AM EST


 

Airport Tracker/Info


-or-


 

Live Flight TrackerFlight Track Log ✈ RPA4911 ✈ 11-Jul-2013 ✈ KALB - KEWR

Flight Track Log - Related Links

Times and Time Zones

All times are in EDT time to prevent confusion due to time zone crossing. See the RPA4911 flight status page for this flight to view local times or setup timezone preferences in your user account.

Time Position Orientation Groundspeed Altitude Reporting Facility
EDT Latitude Longitude Course Direction KTS MPH feet Rate Location/Type
06:07AM 42.7672 -73.8061 200° South 175 201 1,300  Level Boston Center
06:08AM 42.8128 -73.8497 325° Northwest 223 257 3,600 2,040 Climbing Boston Center
06:09AM 42.7600 -73.8881 208° Southwest 272 313 5,800 2,100 Climbing Boston Center
06:10AM 42.3938 -73.8671 197° South  Level Estimated
06:10AM 42.6911 -73.9033 189° South 278 320 8,000  Level Boston Center
06:11AM 42.3200 -73.9360 215° Southwest  Level FlightAware Approximate
06:11AM 42.6219 -73.9242 192° South 267 307 9,700  Level Boston Center
06:12AM 42.2309 -73.9490 200° South  Level Estimated
06:12AM 42.5425 -73.9450 191° South 284 327 10,000  Level Boston Center
06:13AM 42.4525 -73.9708 192° South 298 343 11,700 1,500 Climbing Boston Center
06:14AM 42.3836 -73.9889 191° South 293 337 13,000 1,140 Climbing Boston Center
06:15AM 42.2997 -74.0147 193° South 293 337 14,000 480 Climbing Boston Center
06:16AM 42.2244 -74.0353 191° South 298 343 14,000  Level Boston Center
06:17AM 42.1511 -74.0728 201° Southwest 298 343 14,100  Climbing Boston Center
06:18AM 42.0672 -74.1069 197° South 284 327 14,100 -60 Level Boston Center
06:19AM 41.9939 -74.1386 198° South 284 327 14,000 -60 Descending Boston Center
06:20AM 41.9267 -74.1672 198° South 289 333 14,000  Level Boston Center
06:21AM 41.8428 -74.2042 198° South 289 333 14,000  Level Boston Center
06:22AM 41.7756 -74.2356 199° South 289 333 14,000 -420 Level Boston Center
06:23AM 41.6894 -74.2692 196° South 289 333 13,200 -1,200 Descending Boston Center
06:24AM 41.6244 -74.3008 200° South 289 333 11,600 -1,800 Descending Boston Center
06:25AM 41.5403 -74.3372 198° South 289 333 9,600 -1,800 Descending Boston Center
06:26AM 41.4753 -74.3656 198° South 289 333 8,000 -900 Descending Boston Center
06:28AM 41.3333 -74.4167 195° South 256 295 7,000 -600 Descending New York TRACON
06:29AM 41.2667 -74.4500 201° Southwest 249 287 6,200 -540 Descending New York TRACON
06:30AM 41.2000 -74.4833 201° Southwest 248 285 6,000 -240 Descending New York TRACON
06:31AM 41.1333 -74.4500 159° South 268 308 5,800 -540 Descending New York TRACON
06:32AM 41.0833 -74.4167 153° Southeast 263 303 5,000 -720 Descending New York TRACON
06:33AM 41.0500 -74.3333 118° Southeast 265 305 4,600 -900 Descending New York TRACON
06:34AM 41.0167 -74.2500 118° Southeast 269 310 3,400 -840 Descending New York TRACON
06:35AM 40.9667 -74.1667 128° Southeast 254 292 3,000 -240 Descending New York TRACON
06:35AM 40.9333 -74.1333 143° Southeast 224 258 3,000  Level New York TRACON
06:36AM 40.8833 -74.0833 143° Southeast 205 236 3,000 -180 Level New York TRACON
06:37AM 40.8333 -74.0667 166° South 199 229 2,700 -360 Descending New York TRACON